Time;durP1;ratioP1;P1;durP2;ratioP2;P2;SDS_P1;SDS_P2;PMS_P1;PMS_P2;Temp;Humidity;BMP_temperature;BMP_pressure;BME280_temperature;BME280_humidity;BME280_pressure;Samples;Min_cycle;Max_cycle;Signal;HPM_P1;HPM_P2
2023/10/25 00:02:21;;;;;;;3.97;2.88;;;16.10;99.90;;;;;;4996966;28;20037;-62
2023/10/25 00:04:47;;;;;;;3.45;2.85;;;16.20;99.90;;;;;;4999276;28;20545;-61
2023/10/25 00:07:13;;;;;;;4.13;2.97;;;16.30;99.90;;;;;;4998021;28;20038;-61
2023/10/25 00:09:39;;;;;;;4.97;2.83;;;16.40;99.90;;;;;;5000262;28;20034;-61
2023/10/25 00:12:05;;;;;;;4.00;3.10;;;16.40;99.90;;;;;;4999591;28;20116;-62
2023/10/25 00:14:30;;;;;;;3.38;2.60;;;16.40;99.90;;;;;;4998824;28;20624;-61
2023/10/25 00:16:56;;;;;;;3.42;2.78;;;16.40;99.90;;;;;;4998881;28;20050;-61
2023/10/25 00:19:22;;;;;;;3.17;2.58;;;16.40;99.90;;;;;;5000014;28;20046;-62
2023/10/25 00:21:47;;;;;;;3.75;3.10;;;16.30;99.90;;;;;;4997910;28;20066;-62
2023/10/25 00:24:13;;;;;;;3.53;3.00;;;16.30;99.90;;;;;;4999818;28;20044;-62
2023/10/25 00:26:39;;;;;;;4.68;3.40;;;16.30;99.90;;;;;;4997539;28;20042;-62
2023/10/25 00:29:05;;;;;;;5.63;3.40;;;16.40;99.90;;;;;;5000390;28;20045;-62
2023/10/25 00:31:30;;;;;;;4.07;3.08;;;16.40;99.90;;;;;;4998187;28;20039;-62
2023/10/25 00:33:57;;;;;;;3.08;2.53;;;16.40;99.90;;;;;;4999998;28;20046;-62
2023/10/25 00:36:22;;;;;;;3.60;2.33;;;16.40;99.90;;;;;;5030505;28;20060;-62
2023/10/25 00:38:48;;;;;;;3.53;2.80;;;16.30;99.90;;;;;;4999241;28;20034;-61
2023/10/25 00:41:15;;;;;;;2.67;2.38;;;16.40;99.90;;;;;;4998902;28;20072;-62
2023/10/25 00:43:40;;;;;;;4.15;2.92;;;16.50;99.90;;;;;;5029381;28;20054;-61
2023/10/25 00:46:11;;;;;;;2.85;2.58;;;16.50;99.90;;;;;;5001002;28;20042;-62
2023/10/25 00:48:42;;;;;;;2.92;2.63;;;16.50;99.90;;;;;;5031540;28;20036;-61
2023/10/25 00:51:10;;;;;;;4.20;2.92;;;16.50;99.90;;;;;;5003618;28;20053;-61
2023/10/25 00:53:41;;;;;;;4.90;2.85;;;16.60;99.90;;;;;;4992276;28;20034;-61
2023/10/25 00:56:11;;;;;;;4.72;2.95;;;16.60;99.90;;;;;;5013567;28;20032;-61
2023/10/25 00:58:48;;;;;;;2.47;2.20;;;16.70;99.90;;;;;;5008270;28;20150;-61
2023/10/25 01:01:15;;;;;;;3.95;2.90;;;16.60;99.90;;;;;;5001942;28;20108;-61
2023/10/25 01:03:41;;;;;;;3.95;2.58;;;16.60;99.90;;;;;;4993331;28;20133;-61
2023/10/25 01:06:07;;;;;;;3.30;2.60;;;16.50;99.90;;;;;;5000421;28;20703;-61
2023/10/25 01:08:33;;;;;;;5.32;2.65;;;16.50;99.90;;;;;;4994111;28;20829;-61
2023/10/25 01:10:59;;;;;;;5.63;3.15;;;16.50;99.90;;;;;;5029743;28;20029;-61
2023/10/25 01:13:24;;;;;;;3.35;2.60;;;16.50;99.90;;;;;;4994045;28;20034;-61
2023/10/25 01:15:50;;;;;;;6.30;2.90;;;16.50;99.90;;;;;;5000381;28;20446;-61
2023/10/25 01:18:16;;;;;;;3.65;3.10;;;16.50;99.90;;;;;;4996434;28;20032;-62
2023/10/25 01:20:43;;;;;;;4.55;3.25;;;16.50;99.90;;;;;;4997573;28;20088;-62
2023/10/25 01:23:09;;;;;;;5.43;3.20;;;16.50;99.90;;;;;;4996784;28;20532;-61
2023/10/25 01:25:35;;;;;;;5.93;3.53;;;16.50;99.90;;;;;;4998104;28;20160;-62
2023/10/25 01:28:02;;;;;;;5.80;3.97;;;16.60;99.90;;;;;;4997996;28;20591;-61
2023/10/25 01:30:27;;;;;;;4.15;3.22;;;16.60;99.90;;;;;;4997741;28;20030;-62
2023/10/25 01:32:54;;;;;;;5.90;3.60;;;16.70;99.90;;;;;;4996855;28;20629;-61
2023/10/25 01:35:20;;;;;;;5.38;3.78;;;16.70;99.90;;;;;;4997649;28;20065;-62
2023/10/25 01:37:46;;;;;;;5.30;4.03;;;16.70;99.90;;;;;;4996330;28;20388;-61
2023/10/25 01:40:12;;;;;;;5.00;3.35;;;16.70;99.90;;;;;;4998825;28;20038;-61
2023/10/25 01:42:38;;;;;;;4.88;3.70;;;16.70;99.90;;;;;;4996270;28;20034;-61
2023/10/25 01:45:05;;;;;;;4.85;3.85;;;16.70;99.90;;;;;;4999186;28;20115;-61
2023/10/25 01:47:31;;;;;;;7.80;5.05;;;16.70;99.90;;;;;;4996556;28;20037;-61
2023/10/25 01:49:57;;;;;;;7.32;5.82;;;16.60;99.90;;;;;;4998482;28;20038;-61
2023/10/25 01:52:22;;;;;;;6.10;4.78;;;16.50;99.90;;;;;;5028850;28;20088;-61
2023/10/25 01:54:50;;;;;;;7.93;5.45;;;16.50;99.90;;;;;;4997629;28;20034;-62
2023/10/25 01:57:36;;;;;;;5.72;4.78;;;16.50;99.90;;;;;;5000701;28;20038;-61
2023/10/25 02:00:03;;;;;;;6.40;4.25;;;16.40;99.90;;;;;;4997402;28;20033;-61
2023/10/25 02:02:38;;;;;;;7.82;5.50;;;16.40;99.90;;;;;;4996459;28;20042;-61
2023/10/25 02:05:04;;;;;;;6.75;4.68;;;16.30;99.90;;;;;;5030614;28;20045;-61
2023/10/25 02:07:30;;;;;;;6.32;4.22;;;16.30;99.90;;;;;;5027886;28;20030;-61
2023/10/25 02:09:56;;;;;;;10.00;5.95;;;16.30;99.90;;;;;;4997941;28;20111;-61
2023/10/25 02:12:22;;;;;;;6.72;4.30;;;16.20;99.90;;;;;;4995729;28;20584;-61
2023/10/25 02:14:48;;;;;;;9.63;4.68;;;16.20;99.90;;;;;;4995304;28;20552;-61
2023/10/25 02:17:14;;;;;;;7.00;4.93;;;16.20;99.90;;;;;;4999306;28;20067;-61
2023/10/25 02:19:40;;;;;;;6.72;5.10;;;16.20;99.90;;;;;;4996438;28;20045;-61
2023/10/25 02:22:07;;;;;;;5.97;4.70;;;16.00;99.90;;;;;;5001844;28;20102;-61
2023/10/25 02:24:32;;;;;;;6.05;5.13;;;15.90;99.90;;;;;;4993003;28;20035;-61
2023/10/25 02:26:59;;;;;;;7.18;5.15;;;15.90;99.90;;;;;;4998134;28;20533;-61
2023/10/25 02:29:25;;;;;;;8.32;5.47;;;15.90;99.90;;;;;;4991981;28;20035;-61
2023/10/25 02:31:51;;;;;;;11.73;6.28;;;15.90;99.90;;;;;;4997784;28;20040;-61
2023/10/25 02:34:16;;;;;;;9.73;5.72;;;15.80;99.90;;;;;;4994396;28;20034;-61
2023/10/25 02:36:42;;;;;;;7.63;5.55;;;15.70;99.90;;;;;;4998116;28;20080;-61
2023/10/25 02:39:12;;;;;;;6.88;5.38;;;15.70;99.90;;;;;;4993923;28;20062;-61
2023/10/25 02:41:38;;;;;;;8.10;5.40;;;15.70;99.90;;;;;;5030119;28;20785;-62
2023/10/25 02:44:04;;;;;;;7.65;5.35;;;15.70;99.90;;;;;;4994518;28;20034;-61
2023/10/25 02:46:30;;;;;;;8.35;5.55;;;15.60;99.90;;;;;;4997002;28;20030;-61
2023/10/25 02:48:55;;;;;;;7.60;4.90;;;15.60;99.90;;;;;;4994669;28;20065;-61
2023/10/25 02:51:21;;;;;;;7.07;5.07;;;15.70;99.90;;;;;;4997657;28;20026;-61
2023/10/25 02:53:47;;;;;;;6.78;4.57;;;15.70;99.90;;;;;;4993611;28;20034;-61
2023/10/25 02:56:13;;;;;;;7.97;5.10;;;15.70;99.90;;;;;;4996602;28;20840;-61
2023/10/25 02:58:39;;;;;;;11.07;5.47;;;15.70;99.90;;;;;;4996994;28;20038;-61
2023/10/25 03:01:05;;;;;;;8.77;5.57;;;15.60;99.90;;;;;;4997831;28;20536;-61
2023/10/25 03:03:34;;;;;;;7.35;5.63;;;15.50;99.90;;;;;;4993888;28;20141;-61
2023/10/25 03:06:00;;;;;;;7.10;5.20;;;15.50;99.90;;;;;;4997716;28;20030;-61
2023/10/25 03:08:28;;;;;;;8.80;5.10;;;15.40;99.90;;;;;;4994707;28;20072;-61
2023/10/25 03:10:55;;;;;;;5.78;4.80;;;15.40;99.90;;;;;;4995588;28;20037;-61
2023/10/25 03:13:21;;;;;;;7.47;5.68;;;15.30;99.90;;;;;;5028341;28;20100;-61
2023/10/25 03:15:47;;;;;;;8.32;5.50;;;15.30;99.90;;;;;;4994292;28;20030;-61
2023/10/25 03:18:13;;;;;;;7.25;5.75;;;15.20;99.90;;;;;;5000505;28;20054;-62
2023/10/25 03:20:38;;;;;;;7.63;5.18;;;15.10;99.90;;;;;;4995403;28;20180;-61
2023/10/25 03:23:04;;;;;;;10.85;5.43;;;15.00;99.90;;;;;;5001794;28;20033;-61
2023/10/25 03:25:30;;;;;;;10.27;5.97;;;14.90;99.90;;;;;;4999095;28;20042;-62
2023/10/25 03:27:55;;;;;;;7.80;5.03;;;14.80;99.90;;;;;;5000161;28;20046;-61
2023/10/25 03:30:21;;;;;;;11.20;5.47;;;14.60;99.90;;;;;;4997752;28;20038;-61
2023/10/25 03:32:47;;;;;;;6.50;5.28;;;14.50;99.90;;;;;;5001346;28;20801;-61
2023/10/25 03:35:13;;;;;;;7.60;4.22;;;14.40;99.90;;;;;;5002064;28;20025;-61
2023/10/25 03:37:39;;;;;;;6.35;4.75;;;14.30;99.90;;;;;;5001845;28;20045;-61
2023/10/25 03:40:10;;;;;;;10.00;5.75;;;14.20;99.90;;;;;;4999604;28;20041;-61
2023/10/25 03:42:36;;;;;;;10.13;6.15;;;14.10;99.90;;;;;;5001226;28;20034;-61
2023/10/25 03:45:06;;;;;;;12.65;5.93;;;14.10;99.90;;;;;;4998998;28;20398;-61
2023/10/25 03:47:37;;;;;;;9.45;6.15;;;14.00;99.90;;;;;;5014560;28;20673;-61
2023/10/25 03:50:04;;;;;;;7.50;4.93;;;13.90;99.90;;;;;;5000709;28;20034;-61
2023/10/25 03:52:30;;;;;;;8.77;6.40;;;13.90;99.90;;;;;;4999457;28;20127;-61
2023/10/25 03:54:56;;;;;;;8.18;5.28;;;13.80;99.90;;;;;;4998292;28;20491;-61
2023/10/25 03:57:23;;;;;;;7.72;5.90;;;13.80;99.90;;;;;;5000179;28;20037;-61
2023/10/25 03:59:48;;;;;;;8.80;5.40;;;13.80;99.90;;;;;;5012927;28;20030;-61
2023/10/25 04:02:14;;;;;;;9.80;5.38;;;13.70;99.90;;;;;;5000611;28;20139;-61
2023/10/25 04:04:40;;;;;;;8.43;5.40;;;13.70;99.90;;;;;;4997280;28;20049;-61
2023/10/25 04:07:06;;;;;;;7.68;4.82;;;13.70;99.90;;;;;;5001930;28;20050;-61
2023/10/25 04:09:31;;;;;;;8.30;5.78;;;13.60;99.90;;;;;;4997659;28;20053;-62
2023/10/25 04:11:57;;;;;;;9.05;5.38;;;13.60;99.90;;;;;;4999899;28;20037;-61
2023/10/25 04:14:23;;;;;;;8.38;5.65;;;13.60;99.90;;;;;;4998790;28;20045;-61
2023/10/25 04:16:50;;;;;;;9.52;6.10;;;13.60;99.90;;;;;;4999344;28;20054;-61
2023/10/25 04:19:15;;;;;;;10.73;6.32;;;13.60;99.90;;;;;;5000356;28;20563;-61
2023/10/25 04:21:41;;;;;;;8.05;5.65;;;13.60;99.90;;;;;;4997915;28;20546;-62
2023/10/25 04:24:07;;;;;;;8.70;4.93;;;13.60;99.90;;;;;;5000336;28;20564;-61
2023/10/25 04:26:33;;;;;;;7.88;5.10;;;13.70;99.90;;;;;;4997438;28;20092;-61
2023/10/25 04:28:59;;;;;;;7.97;5.35;;;13.70;99.90;;;;;;4999544;28;20433;-61
2023/10/25 04:31:25;;;;;;;7.22;4.85;;;13.70;99.90;;;;;;4997699;28;20489;-61
2023/10/25 04:33:51;;;;;;;7.10;5.20;;;13.60;99.90;;;;;;4998861;28;20030;-61
2023/10/25 04:36:17;;;;;;;9.15;5.75;;;13.60;99.90;;;;;;4997929;28;20036;-61
2023/10/25 04:38:43;;;;;;;8.38;6.00;;;13.60;99.90;;;;;;5002077;28;20522;-61
2023/10/25 04:41:09;;;;;;;7.78;5.20;;;13.70;99.90;;;;;;4997704;28;20036;-61
2023/10/25 04:43:35;;;;;;;8.15;5.60;;;13.70;99.90;;;;;;4999447;28;20042;-61
2023/10/25 04:46:03;;;;;;;8.93;5.20;;;13.60;99.90;;;;;;4997813;28;20406;-61
2023/10/25 04:48:29;;;;;;;9.43;5.53;;;13.50;99.90;;;;;;5000227;28;20030;-61
2023/10/25 04:50:55;;;;;;;8.85;5.50;;;13.40;99.90;;;;;;4997256;28;20025;-61
2023/10/25 04:53:21;;;;;;;9.73;5.70;;;13.40;99.90;;;;;;4995562;28;20465;-61
2023/10/25 04:55:47;;;;;;;10.23;6.25;;;13.30;99.90;;;;;;4997496;28;20061;-61
2023/10/25 04:58:13;;;;;;;9.25;6.72;;;13.40;99.90;;;;;;5002949;28;20088;-61
2023/10/25 05:00:39;;;;;;;12.00;6.80;;;13.40;99.90;;;;;;4995186;28;20388;-61
2023/10/25 05:03:09;;;;;;;10.13;6.90;;;13.40;99.90;;;;;;5001507;28;20037;-61
2023/10/25 05:05:39;;;;;;;10.93;6.63;;;13.40;99.90;;;;;;5026695;28;20490;-62
2023/10/25 05:08:06;;;;;;;8.90;6.03;;;13.40;99.90;;;;;;4999888;28;20029;-61
2023/10/25 05:10:32;;;;;;;8.48;5.80;;;13.40;99.90;;;;;;4995471;28;20042;-61
2023/10/25 05:12:58;;;;;;;7.28;4.70;;;13.30;99.90;;;;;;5001516;28;20773;-61
2023/10/25 05:15:27;;;;;;;8.27;5.80;;;13.40;99.90;;;;;;4996656;28;20723;-61
2023/10/25 05:17:53;;;;;;;7.88;5.15;;;13.40;99.90;;;;;;4999182;28;20053;-61
2023/10/25 05:20:19;;;;;;;7.78;5.63;;;13.50;99.90;;;;;;4995711;28;20084;-61
2023/10/25 05:22:50;;;;;;;6.53;4.68;;;13.60;99.90;;;;;;4996750;28;20052;-61
2023/10/25 05:25:17;;;;;;;6.13;4.22;;;13.70;99.90;;;;;;4997973;28;20038;-61
2023/10/25 05:27:43;;;;;;;6.55;4.95;;;13.80;99.90;;;;;;4996491;28;20037;-61
2023/10/25 05:30:09;;;;;;;6.13;4.60;;;14.00;99.90;;;;;;4998823;28;20149;-61
2023/10/25 05:32:37;;;;;;;7.65;4.38;;;14.10;99.90;;;;;;4995207;28;20050;-61
2023/10/25 05:35:05;;;;;;;7.32;5.40;;;14.20;99.90;;;;;;5001115;28;20041;-61
2023/10/25 05:37:31;;;;;;;6.10;4.55;;;14.20;99.90;;;;;;4995488;28;20087;-61
2023/10/25 05:39:58;;;;;;;7.07;5.32;;;14.10;99.90;;;;;;4996984;28;20155;-61
2023/10/25 05:42:25;;;;;;;5.38;4.00;;;14.10;99.90;;;;;;4996717;28;20486;-61
2023/10/25 05:44:53;;;;;;;7.75;4.90;;;14.00;99.90;;;;;;4997702;28;20129;-61
2023/10/25 05:47:21;;;;;;;6.90;5.47;;;14.00;99.90;;;;;;4996181;28;20045;-62
2023/10/25 05:49:47;;;;;;;8.25;5.57;;;13.90;99.90;;;;;;4997041;28;20027;-61
2023/10/25 05:52:14;;;;;;;8.95;6.15;;;13.90;99.90;;;;;;4996028;28;20112;-61
2023/10/25 05:54:40;;;;;;;9.90;5.70;;;13.80;99.90;;;;;;5012409;28;20041;-61
2023/10/25 05:57:07;;;;;;;9.55;6.32;;;13.70;99.90;;;;;;4996326;28;20096;-62
2023/10/25 05:59:34;;;;;;;8.75;6.10;;;13.60;99.90;;;;;;5000565;28;20041;-61
2023/10/25 06:02:14;;;;;;;9.70;6.35;;;13.60;99.90;;;;;;5014481;28;20035;-61
2023/10/25 06:04:41;;;;;;;9.88;6.60;;;13.60;99.90;;;;;;4997360;28;20049;-61
2023/10/25 06:07:09;;;;;;;10.95;6.03;;;13.60;99.90;;;;;;4996440;28;20021;-61
2023/10/25 06:09:36;;;;;;;9.32;6.30;;;13.60;99.90;;;;;;4997972;28;20029;-61
2023/10/25 06:12:03;;;;;;;9.88;6.38;;;13.60;99.90;;;;;;4996418;28;20033;-61
2023/10/25 06:14:31;;;;;;;7.75;5.65;;;13.60;99.90;;;;;;4998507;28;20387;-61
2023/10/25 06:17:00;;;;;;;6.10;4.90;;;13.60;99.90;;;;;;4995682;28;20073;-61
2023/10/25 06:19:27;;;;;;;7.18;5.38;;;13.60;99.90;;;;;;4998499;28;20696;-61
2023/10/25 06:21:53;;;;;;;8.60;4.03;;;13.80;99.90;;;;;;4995245;28;20038;-61
2023/10/25 06:24:19;;;;;;;7.03;4.95;;;14.00;99.90;;;;;;5000614;28;20045;-61
2023/10/25 06:26:45;;;;;;;8.52;5.80;;;14.10;99.90;;;;;;4994334;28;20406;-61
2023/10/25 06:29:11;;;;;;;8.77;5.70;;;14.20;99.90;;;;;;5000708;28;20383;-61
2023/10/25 06:31:37;;;;;;;8.20;6.35;;;14.20;99.90;;;;;;4994057;28;20033;-61
2023/10/25 06:34:03;;;;;;;7.00;5.40;;;14.10;99.90;;;;;;5001389;28;20068;-61
2023/10/25 06:36:31;;;;;;;7.97;5.18;;;14.10;99.90;;;;;;4998156;28;20042;-61
2023/10/25 06:38:57;;;;;;;6.85;4.30;;;14.10;99.90;;;;;;4997294;28;20033;-61
2023/10/25 06:41:23;;;;;;;10.32;6.10;;;14.00;99.90;;;;;;4996213;28;20037;-61
2023/10/25 06:43:49;;;;;;;6.22;4.95;;;14.00;99.90;;;;;;4994313;28;20046;-61
2023/10/25 06:46:15;;;;;;;7.40;5.32;;;13.90;99.90;;;;;;4996819;28;20713;-61
2023/10/25 06:48:41;;;;;;;10.13;6.28;;;13.90;99.90;;;;;;4995080;28;20038;-61
2023/10/25 06:51:08;;;;;;;9.02;6.10;;;13.90;99.90;;;;;;4997811;28;20022;-61
2023/10/25 06:53:38;;;;;;;8.75;5.43;;;13.90;99.90;;;;;;4992286;28;20041;-61
2023/10/25 06:56:04;;;;;;;8.35;5.45;;;13.90;99.90;;;;;;4996398;28;20033;-61
2023/10/25 06:58:31;;;;;;;11.10;5.82;;;13.90;99.90;;;;;;4996794;28;20026;-61
2023/10/25 07:00:57;;;;;;;10.45;6.68;;;14.00;99.90;;;;;;5001865;28;20045;-60
2023/10/25 07:03:34;;;;;;;7.75;5.10;;;14.10;99.90;;;;;;4999353;28;20061;-61
2023/10/25 07:06:02;;;;;;;8.13;5.22;;;14.20;99.90;;;;;;5002003;28;20038;-61
2023/10/25 07:08:30;;;;;;;6.78;5.25;;;14.30;99.90;;;;;;4999202;28;20821;-61
2023/10/25 07:10:56;;;;;;;8.48;5.38;;;14.40;99.90;;;;;;5001380;28;20041;-61
2023/10/25 07:13:24;;;;;;;7.03;5.03;;;14.50;99.90;;;;;;5003980;28;20049;-61
2023/10/25 07:15:51;;;;;;;8.05;5.43;;;14.60;99.90;;;;;;5001113;28;20042;-61
2023/10/25 07:18:17;;;;;;;6.57;5.10;;;14.70;99.90;;;;;;4999324;28;20029;-61
2023/10/25 07:20:43;;;;;;;7.30;4.90;;;14.80;99.90;;;;;;5001148;28;20837;-61
2023/10/25 07:23:08;;;;;;;6.63;4.55;;;14.80;99.90;;;;;;4999356;28;20120;-61
2023/10/25 07:25:34;;;;;;;4.72;4.20;;;14.90;99.90;;;;;;4998133;28;20077;-61
2023/10/25 07:28:00;;;;;;;9.95;6.85;;;15.10;99.90;;;;;;4999456;28;20033;-61
2023/10/25 07:30:26;;;;;;;9.52;5.97;;;15.30;99.90;;;;;;4999341;28;20026;-61
2023/10/25 07:32:52;;;;;;;8.98;5.53;;;15.50;99.90;;;;;;4997753;28;20049;-61
2023/10/25 07:35:18;;;;;;;7.38;4.95;;;15.80;99.90;;;;;;5003827;28;20776;-62
2023/10/25 07:37:43;;;;;;;5.63;4.32;;;16.10;99.90;;;;;;4998570;28;20096;-61
2023/10/25 07:40:10;;;;;;;6.85;5.47;;;16.20;99.40;;;;;;5005842;28;20099;-61
2023/10/25 07:42:35;;;;;;;9.60;6.10;;;16.20;98.90;;;;;;4999988;28;20084;-61
2023/10/25 07:45:01;;;;;;;7.45;4.50;;;16.20;98.80;;;;;;5005319;28;20113;-61
2023/10/25 07:47:28;;;;;;;8.43;5.97;;;16.20;98.70;;;;;;4999810;28;20687;-61
2023/10/25 07:49:55;;;;;;;7.00;4.93;;;16.20;98.90;;;;;;5002590;28;20042;-61
2023/10/25 07:52:23;;;;;;;9.85;5.70;;;16.10;98.90;;;;;;4998610;28;20032;-61
2023/10/25 07:54:49;;;;;;;7.88;5.53;;;16.20;99.70;;;;;;5001757;28;20034;-61
2023/10/25 07:57:15;;;;;;;7.90;4.97;;;16.20;99.40;;;;;;5001131;28;20071;-61
2023/10/25 07:59:41;;;;;;;9.75;5.22;;;16.30;99.60;;;;;;5003738;28;20018;-64
2023/10/25 08:02:07;;;;;;;7.05;5.68;;;16.50;98.70;;;;;;4987799;28;20037;-64
2023/10/25 08:04:32;;;;;;;9.35;6.53;;;16.50;98.00;;;;;;5001393;28;20034;-64
2023/10/25 08:06:59;;;;;;;7.90;5.97;;;16.40;98.20;;;;;;5000339;28;20037;-64
2023/10/25 08:09:25;;;;;;;8.80;6.63;;;16.20;98.80;;;;;;5014637;28;20030;-63
2023/10/25 08:11:52;;;;;;;10.35;5.65;;;15.90;99.20;;;;;;4999561;28;20089;-62
2023/10/25 08:14:18;;;;;;;9.77;6.38;;;15.70;99.60;;;;;;5001514;28;20473;-63
2023/10/25 08:16:45;;;;;;;8.30;5.93;;;15.50;99.90;;;;;;5000955;28;20088;-68
2023/10/25 08:19:11;;;;;;;8.70;6.53;;;15.30;99.90;;;;;;5000815;28;20387;-69
2023/10/25 08:21:37;;;;;;;10.45;6.85;;;15.10;99.90;;;;;;5003982;28;20435;-69
2023/10/25 08:24:05;;;;;;;11.13;7.15;;;15.10;99.90;;;;;;5003750;28;20064;-69
2023/10/25 08:26:40;;;;;;;11.32;6.82;;;15.00;99.90;;;;;;5002749;28;20041;-69
2023/10/25 08:29:07;;;;;;;11.60;7.47;;;15.00;99.90;;;;;;4997487;28;20038;-69
2023/10/25 08:31:33;;;;;;;10.98;7.70;;;15.00;99.90;;;;;;5000814;28;20026;-69
2023/10/25 08:33:59;;;;;;;10.48;7.38;;;14.90;99.90;;;;;;5003378;28;20040;-69
2023/10/25 08:36:26;;;;;;;12.20;6.70;;;14.90;99.90;;;;;;4993909;28;20042;-68
2023/10/25 08:38:51;;;;;;;12.02;7.85;;;14.80;99.90;;;;;;4998840;28;20030;-68
2023/10/25 08:41:19;;;;;;;12.43;7.35;;;14.80;99.90;;;;;;5003804;28;20037;-68
2023/10/25 08:43:46;;;;;;;13.45;7.72;;;14.80;99.90;;;;;;5004726;28;20100;-68
2023/10/25 08:46:14;;;;;;;10.30;7.47;;;14.70;99.90;;;;;;5004671;28;20125;-68
2023/10/25 08:48:40;;;;;;;15.20;6.68;;;14.70;99.90;;;;;;5004611;28;20022;-68
2023/10/25 08:51:08;;;;;;;8.68;6.40;;;14.70;99.90;;;;;;5004340;28;20048;-68
2023/10/25 08:53:35;;;;;;;12.10;6.63;;;14.60;99.90;;;;;;5002534;28;20025;-67
2023/10/25 08:56:01;;;;;;;9.55;6.22;;;14.60;99.90;;;;;;5004532;28;20061;-67
2023/10/25 08:58:27;;;;;;;13.88;6.80;;;14.60;99.90;;;;;;5004475;28;20057;-68
2023/10/25 09:00:57;;;;;;;9.38;6.55;;;14.60;99.90;;;;;;5004413;28;20048;-69
2023/10/25 09:03:31;;;;;;;9.90;6.40;;;14.60;99.90;;;;;;5004640;28;20409;-66
2023/10/25 09:05:58;;;;;;;7.78;5.38;;;14.50;99.90;;;;;;5004502;28;20056;-69
2023/10/25 09:08:24;;;;;;;7.00;4.60;;;14.50;99.90;;;;;;5003965;28;20108;-69
2023/10/25 09:11:07;;;;;;;8.38;5.47;;;14.50;99.90;;;;;;5003838;28;20030;-69
2023/10/25 09:13:37;;;;;;;10.65;7.05;;;14.50;99.90;;;;;;5004077;28;20128;-70
2023/10/25 09:16:04;;;;;;;7.68;5.35;;;14.70;99.90;;;;;;4995775;28;20034;-70
2023/10/25 09:18:32;;;;;;;9.15;6.50;;;14.90;99.90;;;;;;5004191;28;20042;-70
2023/10/25 09:20:58;;;;;;;10.18;5.80;;;15.20;99.90;;;;;;5003541;28;20112;-69
2023/10/25 09:23:23;;;;;;;10.65;5.85;;;15.60;99.90;;;;;;5001730;28;20204;-71
2023/10/25 09:25:50;;;;;;;8.80;6.10;;;16.20;99.90;;;;;;5002251;28;20026;-68
2023/10/25 09:28:27;;;;;;;81.18;36.85;;;16.80;99.90;;;;;;4997750;28;20027;-70
2023/10/25 09:30:54;;;;;;;50.63;27.90;;;17.30;99.90;;;;;;5003703;28;20718;-70
2023/10/25 09:33:19;;;;;;;25.33;22.63;;;18.00;99.60;;;;;;5008573;28;20482;-70
2023/10/25 09:35:46;;;;;;;15.73;14.10;;;18.60;98.50;;;;;;5003900;28;20049;-70
2023/10/25 09:38:12;;;;;;;9.55;8.43;;;18.90;97.90;;;;;;5003714;28;20780;-69
2023/10/25 09:40:41;;;;;;;10.95;7.10;;;19.20;97.40;;;;;;5003992;28;20502;-74
2023/10/25 09:43:13;;;;;;;8.90;5.80;;;19.10;97.30;;;;;;5003125;28;20098;-70
2023/10/25 09:45:42;;;;;;;8.93;6.72;;;18.80;97.50;;;;;;4994725;28;20042;-70
2023/10/25 09:48:13;;;;;;;9.20;5.03;;;18.40;97.80;;;;;;4995931;28;20493;-70
2023/10/25 09:50:44;;;;;;;7.40;5.13;;;18.10;97.60;;;;;;5000035;28;20041;-70
2023/10/25 09:53:39;;;;;;;11.40;5.15;;;17.70;98.70;;;;;;5003600;28;20223;-70
2023/10/25 09:56:08;;;;;;;7.57;5.05;;;17.70;98.90;;;;;;5007746;28;20121;-70
2023/10/25 09:58:35;;;;;;;9.02;5.93;;;17.80;98.60;;;;;;5003580;28;20030;-67
2023/10/25 10:01:03;;;;;;;10.20;5.63;;;18.40;97.60;;;;;;4987831;28;20379;-70
2023/10/25 10:03:49;;;;;;;6.10;3.83;;;19.00;96.40;;;;;;4999858;28;20022;-70
2023/10/25 10:06:33;;;;;;;6.97;4.53;;;19.80;95.70;;;;;;4998383;28;20844;-70
2023/10/25 10:09:33;;;;;;;7.30;4.20;;;20.60;94.30;;;;;;5000096;28;20038;-69
2023/10/25 10:12:06;;;;;;;7.25;4.68;;;20.50;93.20;;;;;;5002919;28;20034;-70
2023/10/25 10:14:35;;;;;;;6.47;3.97;;;20.00;94.00;;;;;;5002935;28;20041;-68
2023/10/25 10:17:06;;;;;;;9.82;4.20;;;19.70;94.70;;;;;;5001323;28;20572;-69
2023/10/25 10:19:32;;;;;;;9.07;4.85;;;20.60;93.00;;;;;;5003441;28;20030;-69
2023/10/25 10:22:21;;;;;;;5.63;3.50;;;22.20;90.40;;;;;;5003233;28;20036;-69
2023/10/25 10:24:49;;;;;;;4.25;3.05;;;23.70;83.90;;;;;;5004842;28;20132;-69
2023/10/25 10:27:19;;;;;;;11.95;7.47;;;24.80;79.70;;;;;;5003451;28;20061;-67
2023/10/25 10:29:49;;;;;;;6.28;3.67;;;26.00;75.80;;;;;;5001720;28;20034;-67
2023/10/25 10:32:15;;;;;;;3.75;2.58;;;26.90;71.50;;;;;;5004234;28;20471;-68
2023/10/25 10:34:48;;;;;;;12.07;6.38;;;26.80;68.50;;;;;;5006835;28;20025;-68
2023/10/25 10:37:25;;;;;;;17.38;8.10;;;26.80;67.50;;;;;;5004770;28;20036;-69
2023/10/25 10:39:57;;;;;;;6.70;4.00;;;27.00;66.00;;;;;;4994470;28;20422;-68
2023/10/25 10:42:29;;;;;;;4.82;2.47;;;27.30;65.60;;;;;;5005906;28;20590;-68
2023/10/25 10:45:02;;;;;;;15.05;8.25;;;27.70;64.30;;;;;;5006145;28;20041;-68
2023/10/25 10:47:33;;;;;;;9.50;5.13;;;27.60;63.30;;;;;;5007493;28;20549;-68
2023/10/25 10:50:18;;;;;;;6.57;2.42;;;27.40;63.30;;;;;;5004052;28;20030;-64
2023/10/25 10:52:45;;;;;;;8.15;4.00;;;26.10;65.30;;;;;;4998479;28;20875;-64
2023/10/25 10:55:16;;;;;;;6.53;2.65;;;25.60;65.80;;;;;;4998951;28;20037;-64
2023/10/25 10:57:42;;;;;;;5.97;2.55;;;24.90;66.40;;;;;;5002136;28;20077;-64
2023/10/25 11:00:10;;;;;;;3.28;2.47;;;23.80;69.70;;;;;;4999738;28;20036;-63
2023/10/25 11:02:37;;;;;;;6.97;4.05;;;22.50;73.60;;;;;;5017690;28;20460;-64
2023/10/25 11:05:07;;;;;;;7.13;3.30;;;21.40;79.10;;;;;;5000910;28;20026;-63
2023/10/25 11:07:33;;;;;;;6.85;3.65;;;20.50;81.90;;;;;;4999569;28;20546;-63
2023/10/25 11:10:00;;;;;;;4.85;2.70;;;19.80;85.30;;;;;;5030852;28;20033;-64
2023/10/25 11:12:26;;;;;;;8.50;3.13;;;19.40;88.10;;;;;;5003636;28;20433;-63
2023/10/25 11:14:52;;;;;;;4.78;2.70;;;19.10;88.60;;;;;;4997866;28;20062;-63
2023/10/25 11:17:19;;;;;;;3.95;2.65;;;18.70;90.30;;;;;;5003206;28;20065;-64
2023/10/25 11:19:48;;;;;;;7.50;2.75;;;18.40;90.90;;;;;;4996641;28;20105;-64
2023/10/25 11:22:14;;;;;;;7.82;2.80;;;18.10;91.80;;;;;;5001487;28;20132;-64
2023/10/25 11:24:40;;;;;;;4.00;2.58;;;17.90;91.90;;;;;;4996940;28;20046;-64
2023/10/25 11:27:07;;;;;;;4.35;2.70;;;17.80;92.80;;;;;;5000936;28;20026;-64
2023/10/25 11:29:34;;;;;;;3.80;1.92;;;17.70;92.90;;;;;;4999616;28;20026;-64
2023/10/25 11:32:06;;;;;;;5.85;2.70;;;17.60;93.60;;;;;;4998854;28;20053;-64
2023/10/25 11:34:33;;;;;;;7.70;4.22;;;17.50;93.60;;;;;;4996223;28;20053;-63
2023/10/25 11:37:03;;;;;;;8.05;4.55;;;17.60;94.60;;;;;;4998197;28;20114;-63
2023/10/25 11:39:35;;;;;;;4.10;2.53;;;17.60;94.60;;;;;;4997768;28;20041;-63
2023/10/25 11:42:02;;;;;;;3.20;1.98;;;17.60;94.80;;;;;;5001000;28;20060;-62
2023/10/25 11:44:27;;;;;;;6.55;2.50;;;17.60;94.20;;;;;;4994985;28;20037;-69
2023/10/25 11:46:58;;;;;;;3.30;1.80;;;17.70;95.00;;;;;;5001880;28;20036;-68
2023/10/25 11:49:25;;;;;;;9.35;2.75;;;17.80;94.60;;;;;;5000450;28;20072;-69
2023/10/25 11:51:53;;;;;;;3.92;1.95;;;17.80;95.00;;;;;;4994372;28;20129;-69
2023/10/25 11:54:19;;;;;;;2.05;1.52;;;17.90;94.40;;;;;;5001966;28;20042;-68
2023/10/25 11:56:48;;;;;;;8.18;1.80;;;17.90;93.50;;;;;;5004807;28;20030;-69
2023/10/25 11:59:16;;;;;;;5.68;1.70;;;17.80;93.70;;;;;;5004782;28;20594;-69
2023/10/25 12:01:41;;;;;;;7.25;1.50;;;17.60;93.80;;;;;;5001070;28;20091;-69
2023/10/25 12:04:07;;;;;;;2.08;1.23;;;17.60;93.90;;;;;;5002740;28;20064;-69
2023/10/25 12:06:34;;;;;;;5.07;1.67;;;17.50;94.00;;;;;;5003303;28;20028;-69
2023/10/25 12:09:00;;;;;;;3.65;1.40;;;17.60;94.90;;;;;;5003944;28;20033;-69
2023/10/25 12:11:26;;;;;;;7.70;1.60;;;17.70;94.50;;;;;;5004797;28;20030;-69
2023/10/25 12:13:52;;;;;;;5.25;1.40;;;17.80;94.10;;;;;;5002345;28;20796;-69
2023/10/25 12:16:18;;;;;;;3.38;1.20;;;17.60;93.70;;;;;;5004497;28;20383;-69
2023/10/25 12:18:43;;;;;;;2.15;1.00;;;17.60;94.30;;;;;;5003965;28;20029;-69
2023/10/25 12:21:09;;;;;;;3.78;1.10;;;17.60;94.30;;;;;;4998291;28;20037;-69
2023/10/25 12:23:35;;;;;;;3.25;1.02;;;17.70;94.00;;;;;;5002412;28;20069;-69
2023/10/25 12:26:02;;;;;;;3.60;1.25;;;17.60;94.70;;;;;;5003618;28;20026;-69
2023/10/25 12:28:27;;;;;;;3.30;0.70;;;17.70;93.80;;;;;;5002289;28;20026;-68
2023/10/25 12:30:53;;;;;;;2.17;0.90;;;17.70;94.80;;;;;;5004533;28;20787;-68
2023/10/25 12:33:19;;;;;;;2.97;0.90;;;17.60;95.10;;;;;;5004175;28;20021;-69
2023/10/25 12:35:45;;;;;;;2.17;0.85;;;17.60;95.40;;;;;;4999725;28;20489;-67
2023/10/25 12:38:11;;;;;;;1.27;0.70;;;17.50;95.60;;;;;;5003540;28;20040;-68
2023/10/25 12:40:37;;;;;;;4.65;0.90;;;17.50;95.50;;;;;;5002478;28;20032;-68
2023/10/25 12:43:02;;;;;;;5.63;1.20;;;17.50;94.70;;;;;;5001584;28;20229;-68
2023/10/25 12:45:29;;;;;;;4.07;1.10;;;17.40;94.30;;;;;;5003005;28;20509;-68
2023/10/25 12:47:57;;;;;;;2.25;0.80;;;17.20;95.10;;;;;;5001480;28;20056;-69